INDIA METEOROLOGICAL DEPARTMENT, R.M.C. NEW DELHI
Dated:22-05-2022
METARS


Agartala   
VEAT 220530Z 22003KT 5000 HZ FEW020 33/24 Q1001 NOSIG=
Ahmedabad  
VAAH 220530Z 24008G18KT 5000 FU SCT020 35/24 Q1001 NOSIG=
Allahabad  
VEAB 220500Z 15010KT 5000 DU FEW025 FEW030TCU BKN100 33/21 Q0998 TEMPO 16015G25KT=
Bangalore  
VOBL 220530Z 27015KT 8000 SCT012 BKN080 25/21 Q1012 NOSIG=
Baroda     
VABO 220530Z 28014KT 6000 FEW020 SCT025 35/23 Q1002 NOSIG=
Bhopal     
VABP 220530Z 25013KT 6000 NSC 33/19 Q1002 NOSIG=
Bhubaneswar
VEBS 220530Z 13004KT 4000 HZ SCT018 BKN100 25/23 Q0999 NOSIG=
Bhuntar    
VIBR 220500Z 00000KT 6000 FEW030 25/07 Q1003=
Chennai    
VOMM 220530Z 28010G20KT 6000 SCT020 BKN100 34/25 Q1003 NOSIG=
Coimbatore 
VOCB 220530Z 24010KT 6000 SCT012 BKN080 29/22 Q1010 NOSIG=
Colombo    
VCBI 220540Z 24011KT 9999 FEW017 30/25 Q1009 NOSIG=
Delhi      
VIDP 220530Z 13005KT 3500 HZ FEW100 34/16 Q0998 NOSIG=
Dehradun   
VIDN 220430Z 21003KT 5000 HZ NSC 30/12 Q1000=
Gauhati    
VEGT 220530Z 01008KT 5000 BR SCT018 BKN100 29/24 Q1000 NOSIG=
Gaya       
VEGY 220530Z NIL=
Gaggal     
VIGG 220530Z 00000KT 6000 FEW040 33/12 Q1000=
Goa        
VOGO 220500Z 19006KT 6000 SCT016 29/27 Q1007 NOSIG=
Fursatganj 
VERB 220500Z 14010KT 5000 HZ NSC 35/18 Q0997=
Hyderabad  
VOHS 220530Z 28008G18KT 6000 SCT020 32/19 Q1007 NOSIG=
Imphal     
VEIM 220530Z 35004KT 5000 HZ FEW010 SCT018 BKN100 27/21 Q1005 NOSIG=
Indore     
VAID 220530Z 27019KT 6000 NSC 32/19 Q1004 NOSIG=
Jabalpur   
VAJB 220530Z 24012KT 5000 HZ NSC 38/16 Q1001 NOSIG=
Jaipur     
VIJP 220530Z 28010KT 2500 DU NSC 36/21 Q0999 NOSIG=
Kochi      
VOCI 220530Z 29012KT 3000 RA SCT010 SCT012 BKN080 28/24 Q1009 BECMG 4000 BR=
Kolkata    
VECC 220530Z 16006KT 3500 HZ SCT020 BKN100 30/24 Q0998 NOSIG=
Kozhikode  
VOCL 220530Z 32005KT 4000 BR SCT006 SCT012 BKN080 25/22 Q1010 NOSIG=
Lucknow    
VILK 220530Z 14008KT 4500 HZ SCT020 SCT025 BKN100 30/20 Q0997 BECMG 5000 HZ=
Madurai    
VOMD 220530Z 27018KT 8000 FEW025 35/22 Q1006 NOSIG=
Mohanbari  
VEMN 220530Z 00000KT 4000 HZ SCT018 FEW025CB BKN100 27/23 Q1001 NOSIG=
Mumbai     
VABB 220530Z 24009G19KT 4000 HZ SCT020 SCT025 32/26 Q1006 NOSIG=
Nagpur     
VANP 220530Z 30005KT 5000 HZ NSC 37/21 Q1002 NOSIG=
Pantnagar
VIPT 220530Z 14003KT 5000 HZ NSC 32/16 Q0998 =
Patna      
VEPT 220530Z 10012KT 4500 HZ FEW100 30/22 Q0998 BECMG 5000 HZ=
Raipur     
VERP 220500Z 29008KT 5000 HZ NSC 37/16 Q1000 NOSIG=
Safdarjung 
VIDD 220530Z 13004KT 4000 HZ NSC 35/17 Q0997 NOSIG=
Surat     
VASU 220530Z 19014KT 6000 FEW020 SCT025 33/25 Q1004 NOSIG=
Ranchi     
VERC 220500Z 25007KT 5000 HZ SCT018 BKN100 28/21 Q1002 NOSIG=
Trichy     
VOTR 220530Z 28015G25KT 6000 FEW016 35/22 Q1006 NOSIG=
Trivandrum 
VOTV 220530Z 30009KT 6000 FEW015 29/25 Q1009 NOSIG=
Udaipur    
VAUD 220530Z 24014KT 5000 HZ NSC 32/19 Q1002 NOSIG=
Varanasi   
VEBN 220530Z 15010KT 3500 HZ FEW100 34/17 Q0997 NOSIG=
Vizag      
VOVZ 220530Z 12007KT 5000 HZ FEW018 35/24 Q0999 NOSIG=
Male       
VRMM 220500Z 28011KT 9999 SCT018TCU 30/26 Q1010 TEMPO 5000 SHRA=
Gan        
VRMG 220500Z 31008KT 9999 FEW018 BKN260 30/25 Q1010 NOSIG=
Kathmandu  
VNKT 220530Z NIL=
Dhaka      
VGHS 220530Z NIL=
Colombo    
VCBI 220540Z 24011KT 9999 FEW017 30/25 Q1009 NOSIG=
Karachi    
OPKC 220530Z 29009KT 5000 HZ BKN020 32/23 Q1000 TEMPO 25017G27KT=
Lahore     
OPLA 220525Z 09010KT 6000 NSC 35/14 Q0995 NOSIG RMK QFE968 A29.41=
Gorakhpur  
VEGK 220500Z 13008KT 6000 FEW030 SCT090 29/21 Q0999 NOSIG=
Agra       
VIAG 220500Z 14008KT 6000 SKC 36/13 Q0997 NOSIG=
Bagdogra   
VEBD 220500Z 11004KT 6000 SCT025 BKN080 30/22 Q1002 NOSIG=
Gwalior    
VIGR 220500Z 23004KT 5000 HZ SKC 37/16 Q0997 NOSIG=
Pune       
VAPO 220500Z 29015G25KT 6000 FEW020 SCT030 31/19 Q1009 NOSIG=
Jamnagar   
VAJM 220500Z 25017KT 6000 SCT015 35/25 Q1001 NOSIG=
Pathankot   
VIPK 220500Z 15004KT 6000 SKC 35/12 Q0998 NOSIG=